sensor_id;sensor_type;location;lat;lon;timestamp;temperature;humidity
5246;DHT22;54412;51.206;6.888;2023-04-01T00:01:12;10.90;99.90
5246;DHT22;54412;51.206;6.888;2023-04-01T00:03:42;10.80;99.90
5246;DHT22;54412;51.206;6.888;2023-04-01T00:06:09;10.80;99.90
5246;DHT22;54412;51.206;6.888;2023-04-01T00:08:39;10.80;99.90
5246;DHT22;54412;51.206;6.888;2023-04-01T00:11:04;10.90;99.90
5246;DHT22;54412;51.206;6.888;2023-04-01T00:13:30;10.90;99.90
5246;DHT22;54412;51.206;6.888;2023-04-01T00:15:56;10.90;99.90
5246;DHT22;54412;51.206;6.888;2023-04-01T00:18:22;10.80;99.90
5246;DHT22;54412;51.206;6.888;2023-04-01T00:20:50;10.80;99.90
5246;DHT22;54412;51.206;6.888;2023-04-01T00:23:17;10.90;99.90
5246;DHT22;54412;51.206;6.888;2023-04-01T00:25:45;10.90;99.90
5246;DHT22;54412;51.206;6.888;2023-04-01T00:28:14;10.90;99.90
5246;DHT22;54412;51.206;6.888;2023-04-01T00:30:43;10.90;99.90
5246;DHT22;54412;51.206;6.888;2023-04-01T00:33:10;10.90;99.90
5246;DHT22;54412;51.206;6.888;2023-04-01T00:35:36;10.90;99.90
5246;DHT22;54412;51.206;6.888;2023-04-01T00:38:02;10.90;99.90
5246;DHT22;54412;51.206;6.888;2023-04-01T00:40:31;10.80;99.90
5246;DHT22;54412;51.206;6.888;2023-04-01T00:43:02;10.90;99.90
5246;DHT22;54412;51.206;6.888;2023-04-01T00:45:30;10.80;99.90
5246;DHT22;54412;51.206;6.888;2023-04-01T00:47:59;10.80;99.90
5246;DHT22;54412;51.206;6.888;2023-04-01T00:50:30;10.90;99.90
5246;DHT22;54412;51.206;6.888;2023-04-01T00:52:58;10.90;99.90
5246;DHT22;54412;51.206;6.888;2023-04-01T00:55:27;10.90;99.90
5246;DHT22;54412;51.206;6.888;2023-04-01T00:57:57;10.90;99.90
5246;DHT22;54412;51.206;6.888;2023-04-01T01:00:25;10.90;99.90
5246;DHT22;54412;51.206;6.888;2023-04-01T01:02:51;10.80;99.90
5246;DHT22;54412;51.206;6.888;2023-04-01T01:05:22;10.80;99.90
5246;DHT22;54412;51.206;6.888;2023-04-01T01:08:25;10.90;99.90
5246;DHT22;54412;51.206;6.888;2023-04-01T01:11:10;10.90;99.90
5246;DHT22;54412;51.206;6.888;2023-04-01T01:13:56;10.80;99.90
5246;DHT22;54412;51.206;6.888;2023-04-01T01:16:29;10.90;99.90
5246;DHT22;54412;51.206;6.888;2023-04-01T01:22:31;11.00;99.90
5246;DHT22;54412;51.206;6.888;2023-04-01T01:25:21;10.80;99.90
5246;DHT22;54412;51.206;6.888;2023-04-01T01:30:54;10.80;99.90
5246;DHT22;54412;51.206;6.888;2023-04-01T01:33:40;10.70;99.90
5246;DHT22;54412;51.206;6.888;2023-04-01T01:36:19;10.70;99.90
5246;DHT22;54412;51.206;6.888;2023-04-01T01:38:48;10.70;99.90
5246;DHT22;54412;51.206;6.888;2023-04-01T01:41:17;10.80;99.90
5246;DHT22;54412;51.206;6.888;2023-04-01T01:43:47;10.60;99.90
5246;DHT22;54412;51.206;6.888;2023-04-01T01:46:19;10.60;99.90
5246;DHT22;54412;51.206;6.888;2023-04-01T01:48:48;10.60;99.90
5246;DHT22;54412;51.206;6.888;2023-04-01T01:51:16;10.60;99.90
5246;DHT22;54412;51.206;6.888;2023-04-01T01:53:43;10.50;99.90
5246;DHT22;54412;51.206;6.888;2023-04-01T01:56:11;10.80;99.90
5246;DHT22;54412;51.206;6.888;2023-04-01T01:58:43;10.80;99.90
5246;DHT22;54412;51.206;6.888;2023-04-01T02:01:21;10.70;99.90
5246;DHT22;54412;51.206;6.888;2023-04-01T02:03:54;10.70;99.90
5246;DHT22;54412;51.206;6.888;2023-04-01T02:06:23;10.80;99.90
5246;DHT22;54412;51.206;6.888;2023-04-01T02:09:01;10.60;99.90
5246;DHT22;54412;51.206;6.888;2023-04-01T02:11:34;10.60;99.90
5246;DHT22;54412;51.206;6.888;2023-04-01T02:14:23;10.50;99.90
5246;DHT22;54412;51.206;6.888;2023-04-01T02:19:57;10.60;99.90
5246;DHT22;54412;51.206;6.888;2023-04-01T02:22:29;10.70;99.90
5246;DHT22;54412;51.206;6.888;2023-04-01T02:25:07;10.60;99.90
5246;DHT22;54412;51.206;6.888;2023-04-01T02:27:37;10.60;99.90
5246;DHT22;54412;51.206;6.888;2023-04-01T02:30:04;10.70;99.90
5246;DHT22;54412;51.206;6.888;2023-04-01T02:32:31;10.70;99.90
5246;DHT22;54412;51.206;6.888;2023-04-01T02:35:00;10.50;99.90
5246;DHT22;54412;51.206;6.888;2023-04-01T02:37:31;10.60;99.90
5246;DHT22;54412;51.206;6.888;2023-04-01T02:40:00;10.60;99.90
5246;DHT22;54412;51.206;6.888;2023-04-01T02:42:27;10.40;99.90
5246;DHT22;54412;51.206;6.888;2023-04-01T02:44:53;10.50;99.90
5246;DHT22;54412;51.206;6.888;2023-04-01T02:47:19;10.40;99.90
5246;DHT22;54412;51.206;6.888;2023-04-01T02:49:44;10.50;99.90
5246;DHT22;54412;51.206;6.888;2023-04-01T02:52:10;10.50;99.90
5246;DHT22;54412;51.206;6.888;2023-04-01T02:54:36;10.50;99.90
5246;DHT22;54412;51.206;6.888;2023-04-01T02:57:01;10.50;99.90
5246;DHT22;54412;51.206;6.888;2023-04-01T02:59:27;10.50;99.90
5246;DHT22;54412;51.206;6.888;2023-04-01T03:01:53;10.50;99.90
5246;DHT22;54412;51.206;6.888;2023-04-01T03:04:18;10.30;99.90
5246;DHT22;54412;51.206;6.888;2023-04-01T03:06:44;10.30;99.90
5246;DHT22;54412;51.206;6.888;2023-04-01T03:09:10;10.40;99.90
5246;DHT22;54412;51.206;6.888;2023-04-01T03:11:35;10.20;99.90
5246;DHT22;54412;51.206;6.888;2023-04-01T03:14:01;10.30;99.90
5246;DHT22;54412;51.206;6.888;2023-04-01T03:16:27;10.20;99.90
5246;DHT22;54412;51.206;6.888;2023-04-01T03:18:53;10.30;99.90
5246;DHT22;54412;51.206;6.888;2023-04-01T03:21:22;10.30;99.90
5246;DHT22;54412;51.206;6.888;2023-04-01T03:23:49;10.40;99.90
5246;DHT22;54412;51.206;6.888;2023-04-01T03:26:15;10.30;99.90
5246;DHT22;54412;51.206;6.888;2023-04-01T03:28:41;10.40;99.90
5246;DHT22;54412;51.206;6.888;2023-04-01T03:31:08;10.40;99.90
5246;DHT22;54412;51.206;6.888;2023-04-01T03:33:34;10.40;99.90
5246;DHT22;54412;51.206;6.888;2023-04-01T03:36:00;10.50;99.90
5246;DHT22;54412;51.206;6.888;2023-04-01T03:38:26;10.40;99.90
5246;DHT22;54412;51.206;6.888;2023-04-01T03:40:51;10.40;99.90
5246;DHT22;54412;51.206;6.888;2023-04-01T03:43:17;10.30;99.90
5246;DHT22;54412;51.206;6.888;2023-04-01T03:45:48;10.30;99.90
5246;DHT22;54412;51.206;6.888;2023-04-01T03:48:15;10.40;99.90
5246;DHT22;54412;51.206;6.888;2023-04-01T03:50:41;10.40;99.90
5246;DHT22;54412;51.206;6.888;2023-04-01T03:53:07;10.30;99.90
5246;DHT22;54412;51.206;6.888;2023-04-01T03:55:35;10.50;99.90
5246;DHT22;54412;51.206;6.888;2023-04-01T03:58:01;10.40;99.90
5246;DHT22;54412;51.206;6.888;2023-04-01T04:00:31;10.30;99.90
5246;DHT22;54412;51.206;6.888;2023-04-01T04:02:57;10.20;99.90
5246;DHT22;54412;51.206;6.888;2023-04-01T04:05:24;10.30;99.90
5246;DHT22;54412;51.206;6.888;2023-04-01T04:07:51;10.40;99.90
5246;DHT22;54412;51.206;6.888;2023-04-01T04:10:18;10.30;99.90
5246;DHT22;54412;51.206;6.888;2023-04-01T04:12:44;10.40;99.90
5246;DHT22;54412;51.206;6.888;2023-04-01T04:15:10;10.50;99.90
5246;DHT22;54412;51.206;6.888;2023-04-01T04:17:36;10.50;99.90
5246;DHT22;54412;51.206;6.888;2023-04-01T04:20:02;10.50;99.90
5246;DHT22;54412;51.206;6.888;2023-04-01T04:22:28;10.50;99.90
5246;DHT22;54412;51.206;6.888;2023-04-01T04:24:54;10.60;99.90
5246;DHT22;54412;51.206;6.888;2023-04-01T04:27:20;10.40;99.90
5246;DHT22;54412;51.206;6.888;2023-04-01T04:29:46;10.40;99.90
5246;DHT22;54412;51.206;6.888;2023-04-01T04:32:11;10.50;99.90
5246;DHT22;54412;51.206;6.888;2023-04-01T04:34:37;10.50;99.90
5246;DHT22;54412;51.206;6.888;2023-04-01T04:37:03;10.40;99.90
5246;DHT22;54412;51.206;6.888;2023-04-01T04:39:29;10.50;99.90
5246;DHT22;54412;51.206;6.888;2023-04-01T04:41:55;10.30;99.90
5246;DHT22;54412;51.206;6.888;2023-04-01T04:44:20;10.30;99.90
5246;DHT22;54412;51.206;6.888;2023-04-01T04:46:46;10.20;99.90
5246;DHT22;54412;51.206;6.888;2023-04-01T04:49:12;10.40;99.90
5246;DHT22;54412;51.206;6.888;2023-04-01T04:51:38;10.40;99.90
5246;DHT22;54412;51.206;6.888;2023-04-01T04:54:05;10.20;99.90
5246;DHT22;54412;51.206;6.888;2023-04-01T04:56:32;10.20;99.90
5246;DHT22;54412;51.206;6.888;2023-04-01T04:58:58;10.30;99.90
5246;DHT22;54412;51.206;6.888;2023-04-01T05:01:24;10.20;99.90
5246;DHT22;54412;51.206;6.888;2023-04-01T05:03:50;10.30;99.90
5246;DHT22;54412;51.206;6.888;2023-04-01T05:06:17;10.40;99.90
5246;DHT22;54412;51.206;6.888;2023-04-01T05:08:44;10.40;99.90
5246;DHT22;54412;51.206;6.888;2023-04-01T05:11:19;10.40;99.90
5246;DHT22;54412;51.206;6.888;2023-04-01T05:13:46;10.30;99.90
5246;DHT22;54412;51.206;6.888;2023-04-01T05:16:17;10.20;99.90
5246;DHT22;54412;51.206;6.888;2023-04-01T05:18:44;10.20;99.90
5246;DHT22;54412;51.206;6.888;2023-04-01T05:21:12;10.40;99.90
5246;DHT22;54412;51.206;6.888;2023-04-01T05:23:40;10.40;99.90
5246;DHT22;54412;51.206;6.888;2023-04-01T05:26:08;10.30;99.90
5246;DHT22;54412;51.206;6.888;2023-04-01T05:28:36;10.40;99.90
5246;DHT22;54412;51.206;6.888;2023-04-01T05:31:04;10.40;99.90
5246;DHT22;54412;51.206;6.888;2023-04-01T05:33:31;10.40;99.90
5246;DHT22;54412;51.206;6.888;2023-04-01T05:36:04;10.40;99.90
5246;DHT22;54412;51.206;6.888;2023-04-01T05:38:38;10.40;99.90
5246;DHT22;54412;51.206;6.888;2023-04-01T05:41:04;10.40;99.90
5246;DHT22;54412;51.206;6.888;2023-04-01T05:43:30;10.30;99.90
5246;DHT22;54412;51.206;6.888;2023-04-01T05:45:57;10.20;99.90
5246;DHT22;54412;51.206;6.888;2023-04-01T05:48:23;10.20;99.90
5246;DHT22;54412;51.206;6.888;2023-04-01T05:50:48;10.20;99.90
5246;DHT22;54412;51.206;6.888;2023-04-01T05:53:15;10.30;99.90
5246;DHT22;54412;51.206;6.888;2023-04-01T05:55:41;10.30;99.90
5246;DHT22;54412;51.206;6.888;2023-04-01T05:58:06;10.30;99.90
5246;DHT22;54412;51.206;6.888;2023-04-01T06:00:32;10.40;99.90
5246;DHT22;54412;51.206;6.888;2023-04-01T06:02:59;10.40;99.90
5246;DHT22;54412;51.206;6.888;2023-04-01T06:05:27;10.30;99.90
5246;DHT22;54412;51.206;6.888;2023-04-01T06:08:06;10.30;99.90
5246;DHT22;54412;51.206;6.888;2023-04-01T06:23:10;10.20;99.90
5246;DHT22;54412;51.206;6.888;2023-04-01T06:46:45;10.20;99.90
5246;DHT22;54412;51.206;6.888;2023-04-01T06:49:39;10.30;99.90
5246;DHT22;54412;51.206;6.888;2023-04-01T06:55:35;10.30;99.90
5246;DHT22;54412;51.206;6.888;2023-04-01T06:58:27;10.40;99.90
5246;DHT22;54412;51.206;6.888;2023-04-01T07:01:01;10.40;99.90
5246;DHT22;54412;51.206;6.888;2023-04-01T07:03:30;10.20;99.90
5246;DHT22;54412;51.206;6.888;2023-04-01T07:06:06;10.30;99.90
5246;DHT22;54412;51.206;6.888;2023-04-01T07:08:40;10.30;99.90
5246;DHT22;54412;51.206;6.888;2023-04-01T07:11:31;10.30;99.90
5246;DHT22;54412;51.206;6.888;2023-04-01T07:16:43;10.70;99.90
5246;DHT22;54412;51.206;6.888;2023-04-01T07:19:31;10.50;99.90
5246;DHT22;54412;51.206;6.888;2023-04-01T07:22:09;10.40;99.90
5246;DHT22;54412;51.206;6.888;2023-04-01T07:24:40;10.50;99.90
5246;DHT22;54412;51.206;6.888;2023-04-01T07:27:11;10.50;99.90
5246;DHT22;54412;51.206;6.888;2023-04-01T07:29:38;10.50;99.90
5246;DHT22;54412;51.206;6.888;2023-04-01T07:37:49;10.40;99.90
5246;DHT22;54412;51.206;6.888;2023-04-01T07:49:32;10.40;99.90
5246;DHT22;54412;51.206;6.888;2023-04-01T07:52:35;10.50;99.90
5246;DHT22;54412;51.206;6.888;2023-04-01T07:55:34;10.50;99.90
5246;DHT22;54412;51.206;6.888;2023-04-01T07:58:34;10.40;99.90
5246;DHT22;54412;51.206;6.888;2023-04-01T08:01:23;10.60;99.90
5246;DHT22;54412;51.206;6.888;2023-04-01T08:07:10;10.30;99.90
5246;DHT22;54412;51.206;6.888;2023-04-01T08:09:50;10.30;99.90
5246;DHT22;54412;51.206;6.888;2023-04-01T08:19:03;10.50;99.90
5246;DHT22;54412;51.206;6.888;2023-04-01T08:21:58;10.60;99.90
5246;DHT22;54412;51.206;6.888;2023-04-01T08:24:43;10.60;99.90
5246;DHT22;54412;51.206;6.888;2023-04-01T08:27:23;10.60;99.90
5246;DHT22;54412;51.206;6.888;2023-04-01T08:29:59;10.40;99.90
5246;DHT22;54412;51.206;6.888;2023-04-01T08:32:36;10.60;99.90
5246;DHT22;54412;51.206;6.888;2023-04-01T08:35:09;10.50;99.90
5246;DHT22;54412;51.206;6.888;2023-04-01T08:37:45;10.40;99.90
5246;DHT22;54412;51.206;6.888;2023-04-01T08:46:17;10.60;99.90
5246;DHT22;54412;51.206;6.888;2023-04-01T08:52:12;10.60;99.90
5246;DHT22;54412;51.206;6.888;2023-04-01T09:01:25;10.60;99.90
5246;DHT22;54412;51.206;6.888;2023-04-01T09:07:27;10.50;99.90
5246;DHT22;54412;51.206;6.888;2023-04-01T09:13:16;10.50;99.90
5246;DHT22;54412;51.206;6.888;2023-04-01T09:21:55;10.60;99.90
5246;DHT22;54412;51.206;6.888;2023-04-01T09:24:47;10.50;99.90
5246;DHT22;54412;51.206;6.888;2023-04-01T09:31:38;10.50;99.90
5246;DHT22;54412;51.206;6.888;2023-04-01T09:34:45;10.50;99.90
5246;DHT22;54412;51.206;6.888;2023-04-01T09:37:35;10.40;99.90
5246;DHT22;54412;51.206;6.888;2023-04-01T09:43:30;10.40;99.90
5246;DHT22;54412;51.206;6.888;2023-04-01T09:55:06;10.50;99.90
5246;DHT22;54412;51.206;6.888;2023-04-01T09:58:37;10.40;99.90
5246;DHT22;54412;51.206;6.888;2023-04-01T10:11:00;10.50;99.90
5246;DHT22;54412;51.206;6.888;2023-04-01T10:14:07;10.60;99.90
5246;DHT22;54412;51.206;6.888;2023-04-01T10:26:35;10.60;99.90
5246;DHT22;54412;51.206;6.888;2023-04-01T10:38:39;10.60;99.90
5246;DHT22;54412;51.206;6.888;2023-04-01T10:51:10;10.60;99.90
5246;DHT22;54412;51.206;6.888;2023-04-01T10:57:23;10.60;99.90
5246;DHT22;54412;51.206;6.888;2023-04-01T11:22:21;10.70;99.90
5246;DHT22;54412;51.206;6.888;2023-04-01T11:37:20;10.70;99.90
5246;DHT22;54412;51.206;6.888;2023-04-01T11:40:07;10.70;99.90
5246;DHT22;54412;51.206;6.888;2023-04-01T12:05:15;11.00;99.90
5246;DHT22;54412;51.206;6.888;2023-04-01T12:11:24;10.90;99.90
5246;DHT22;54412;51.206;6.888;2023-04-01T12:19:35;11.00;99.90
5246;DHT22;54412;51.206;6.888;2023-04-01T12:27:57;11.00;99.90
5246;DHT22;54412;51.206;6.888;2023-04-01T12:30:45;11.00;99.90
5246;DHT22;54412;51.206;6.888;2023-04-01T12:47:20;11.10;99.90
5246;DHT22;54412;51.206;6.888;2023-04-01T12:56:31;11.20;99.90
5246;DHT22;54412;51.206;6.888;2023-04-01T13:02:26;11.00;99.90
5246;DHT22;54412;51.206;6.888;2023-04-01T13:05:18;11.10;99.90
5246;DHT22;54412;51.206;6.888;2023-04-01T13:14:13;11.20;99.90
5246;DHT22;54412;51.206;6.888;2023-04-01T13:17:07;11.20;99.90
5246;DHT22;54412;51.206;6.888;2023-04-01T13:19:52;11.20;99.90
5246;DHT22;54412;51.206;6.888;2023-04-01T13:26:00;11.30;99.90
5246;DHT22;54412;51.206;6.888;2023-04-01T13:28:40;11.20;99.90
5246;DHT22;54412;51.206;6.888;2023-04-01T13:34:15;11.30;99.90
5246;DHT22;54412;51.206;6.888;2023-04-01T13:37:20;11.30;99.90
5246;DHT22;54412;51.206;6.888;2023-04-01T13:42:51;11.20;99.90
5246;DHT22;54412;51.206;6.888;2023-04-01T13:57:36;11.30;99.90
5246;DHT22;54412;51.206;6.888;2023-04-01T14:06:17;11.20;99.90
5246;DHT22;54412;51.206;6.888;2023-04-01T14:11:45;11.20;99.90
5246;DHT22;54412;51.206;6.888;2023-04-01T14:20:46;11.10;99.90
5246;DHT22;54412;51.206;6.888;2023-04-01T14:27:07;11.20;99.90
5246;DHT22;54412;51.206;6.888;2023-04-01T14:30:15;11.20;99.90
5246;DHT22;54412;51.206;6.888;2023-04-01T14:48:39;11.30;99.90
5246;DHT22;54412;51.206;6.888;2023-04-01T14:54:08;11.20;99.90
5246;DHT22;54412;51.206;6.888;2023-04-01T14:57:01;11.20;99.90
5246;DHT22;54412;51.206;6.888;2023-04-01T14:59:29;11.40;99.90
5246;DHT22;54412;51.206;6.888;2023-04-01T15:08:32;11.30;99.90
5246;DHT22;54412;51.206;6.888;2023-04-01T15:11:23;11.20;99.90
5246;DHT22;54412;51.206;6.888;2023-04-01T15:14:31;11.30;99.90
5246;DHT22;54412;51.206;6.888;2023-04-01T15:17:31;11.40;99.90
5246;DHT22;54412;51.206;6.888;2023-04-01T15:26:20;11.30;99.90
5246;DHT22;54412;51.206;6.888;2023-04-01T15:40:50;11.20;99.90
5246;DHT22;54412;51.206;6.888;2023-04-01T15:43:40;11.30;99.90
5246;DHT22;54412;51.206;6.888;2023-04-01T15:46:26;11.40;99.90
5246;DHT22;54412;51.206;6.888;2023-04-01T15:51:58;11.30;99.90
5246;DHT22;54412;51.206;6.888;2023-04-01T15:58:17;11.30;99.90
5246;DHT22;54412;51.206;6.888;2023-04-01T16:04:41;11.20;99.90
5246;DHT22;54412;51.206;6.888;2023-04-01T16:07:47;11.00;99.90
5246;DHT22;54412;51.206;6.888;2023-04-01T16:10:44;11.00;99.90
5246;DHT22;54412;51.206;6.888;2023-04-01T16:16:23;10.90;99.90
5246;DHT22;54412;51.206;6.888;2023-04-01T16:19:12;11.00;99.90
5246;DHT22;54412;51.206;6.888;2023-04-01T16:28:19;10.90;99.90
5246;DHT22;54412;51.206;6.888;2023-04-01T16:31:35;10.90;99.90
5246;DHT22;54412;51.206;6.888;2023-04-01T16:34:25;11.00;99.90
5246;DHT22;54412;51.206;6.888;2023-04-01T16:37:13;10.90;99.90
5246;DHT22;54412;51.206;6.888;2023-04-01T16:46:53;10.90;99.90
5246;DHT22;54412;51.206;6.888;2023-04-01T16:57:46;10.90;99.90
5246;DHT22;54412;51.206;6.888;2023-04-01T17:03:18;10.90;99.90
5246;DHT22;54412;51.206;6.888;2023-04-01T17:11:38;10.90;99.90
5246;DHT22;54412;51.206;6.888;2023-04-01T17:14:22;10.90;99.90
5246;DHT22;54412;51.206;6.888;2023-04-01T17:16:56;11.00;99.90
5246;DHT22;54412;51.206;6.888;2023-04-01T17:19:42;11.00;99.90
5246;DHT22;54412;51.206;6.888;2023-04-01T17:28:36;10.90;99.90
5246;DHT22;54412;51.206;6.888;2023-04-01T17:43:10;11.10;99.90
5246;DHT22;54412;51.206;6.888;2023-04-01T17:45:53;11.10;99.90
5246;DHT22;54412;51.206;6.888;2023-04-01T17:48:27;11.10;99.90
5246;DHT22;54412;51.206;6.888;2023-04-01T17:51:32;11.10;99.90
5246;DHT22;54412;51.206;6.888;2023-04-01T17:59:57;11.00;99.90
5246;DHT22;54412;51.206;6.888;2023-04-01T18:02:37;11.00;99.90
5246;DHT22;54412;51.206;6.888;2023-04-01T18:05:43;10.90;99.90
5246;DHT22;54412;51.206;6.888;2023-04-01T18:11:50;10.90;99.90
5246;DHT22;54412;51.206;6.888;2023-04-01T18:17:42;10.80;99.90
5246;DHT22;54412;51.206;6.888;2023-04-01T18:20:36;10.90;99.90
5246;DHT22;54412;51.206;6.888;2023-04-01T18:23:50;10.90;99.90
5246;DHT22;54412;51.206;6.888;2023-04-01T18:26:39;10.90;99.90
5246;DHT22;54412;51.206;6.888;2023-04-01T18:32:15;11.00;99.90
5246;DHT22;54412;51.206;6.888;2023-04-01T18:35:25;10.90;99.90
5246;DHT22;54412;51.206;6.888;2023-04-01T18:38:34;10.90;99.90
5246;DHT22;54412;51.206;6.888;2023-04-01T18:41:30;11.10;99.90
5246;DHT22;54412;51.206;6.888;2023-04-01T18:44:16;11.00;99.90
5246;DHT22;54412;51.206;6.888;2023-04-01T18:50:37;10.90;99.90
5246;DHT22;54412;51.206;6.888;2023-04-01T18:53:27;10.90;99.90
5246;DHT22;54412;51.206;6.888;2023-04-01T18:56:01;10.90;99.90
5246;DHT22;54412;51.206;6.888;2023-04-01T18:58:50;10.90;99.90
5246;DHT22;54412;51.206;6.888;2023-04-01T19:12:59;10.80;99.90
5246;DHT22;54412;51.206;6.888;2023-04-01T19:19:16;10.70;99.90
5246;DHT22;54412;51.206;6.888;2023-04-01T19:22:12;10.70;99.90
5246;DHT22;54412;51.206;6.888;2023-04-01T19:28:16;10.70;99.90
5246;DHT22;54412;51.206;6.888;2023-04-01T19:30:59;10.70;99.90
5246;DHT22;54412;51.206;6.888;2023-04-01T19:34:00;10.60;99.90
5246;DHT22;54412;51.206;6.888;2023-04-01T19:45:44;10.60;99.90
5246;DHT22;54412;51.206;6.888;2023-04-01T19:56:51;10.40;99.90
5246;DHT22;54412;51.206;6.888;2023-04-01T20:02:58;10.40;99.90
5246;DHT22;54412;51.206;6.888;2023-04-01T20:11:08;10.40;99.90
5246;DHT22;54412;51.206;6.888;2023-04-01T20:22:02;10.40;99.90
5246;DHT22;54412;51.206;6.888;2023-04-01T20:24:44;10.50;99.90
5246;DHT22;54412;51.206;6.888;2023-04-01T20:27:19;10.40;99.90
5246;DHT22;54412;51.206;6.888;2023-04-01T20:30:19;10.40;99.90
5246;DHT22;54412;51.206;6.888;2023-04-01T20:33:33;10.40;99.90
5246;DHT22;54412;51.206;6.888;2023-04-01T20:36:30;10.30;99.90
5246;DHT22;54412;51.206;6.888;2023-04-01T20:39:52;10.40;99.90
5246;DHT22;54412;51.206;6.888;2023-04-01T20:43:14;10.30;99.90
5246;DHT22;54412;51.206;6.888;2023-04-01T20:48:50;10.30;99.90
5246;DHT22;54412;51.206;6.888;2023-04-01T20:51:45;10.30;99.90
5246;DHT22;54412;51.206;6.888;2023-04-01T20:54:29;10.30;99.90
5246;DHT22;54412;51.206;6.888;2023-04-01T20:57:17;10.40;99.90
5246;DHT22;54412;51.206;6.888;2023-04-01T21:05:54;10.60;99.90
5246;DHT22;54412;51.206;6.888;2023-04-01T21:09:21;10.60;99.90
5246;DHT22;54412;51.206;6.888;2023-04-01T21:18:42;10.70;99.90
5246;DHT22;54412;51.206;6.888;2023-04-01T21:24:44;10.70;99.90
5246;DHT22;54412;51.206;6.888;2023-04-01T21:27:38;10.60;99.90
5246;DHT22;54412;51.206;6.888;2023-04-01T21:30:32;10.70;99.90
5246;DHT22;54412;51.206;6.888;2023-04-01T21:36:44;10.80;99.90
5246;DHT22;54412;51.206;6.888;2023-04-01T21:40:17;10.70;99.90
5246;DHT22;54412;51.206;6.888;2023-04-01T21:43:17;10.70;99.90
5246;DHT22;54412;51.206;6.888;2023-04-01T21:49:25;10.60;99.90
5246;DHT22;54412;51.206;6.888;2023-04-01T21:58:25;10.50;99.90
5246;DHT22;54412;51.206;6.888;2023-04-01T22:05:10;10.50;99.90
5246;DHT22;54412;51.206;6.888;2023-04-01T22:07:45;10.50;99.90
5246;DHT22;54412;51.206;6.888;2023-04-01T22:10:41;10.50;99.90
5246;DHT22;54412;51.206;6.888;2023-04-01T22:16:39;10.50;99.90
5246;DHT22;54412;51.206;6.888;2023-04-01T22:25:51;10.40;99.90
5246;DHT22;54412;51.206;6.888;2023-04-01T22:28:48;10.30;99.90
5246;DHT22;54412;51.206;6.888;2023-04-01T22:31:30;10.30;99.90
5246;DHT22;54412;51.206;6.888;2023-04-01T22:37:26;10.20;99.90
5246;DHT22;54412;51.206;6.888;2023-04-01T22:40:27;10.20;99.90
5246;DHT22;54412;51.206;6.888;2023-04-01T22:43:11;10.20;99.90
5246;DHT22;54412;51.206;6.888;2023-04-01T22:48:36;10.20;99.90
5246;DHT22;54412;51.206;6.888;2023-04-01T22:57:14;10.10;99.90
5246;DHT22;54412;51.206;6.888;2023-04-01T23:05:53;10.10;99.90
5246;DHT22;54412;51.206;6.888;2023-04-01T23:08:42;10.10;99.90
5246;DHT22;54412;51.206;6.888;2023-04-01T23:11:27;10.10;99.90
5246;DHT22;54412;51.206;6.888;2023-04-01T23:14:27;10.00;99.90
5246;DHT22;54412;51.206;6.888;2023-04-01T23:20:07;10.00;99.90
5246;DHT22;54412;51.206;6.888;2023-04-01T23:23:23;9.90;99.90
5246;DHT22;54412;51.206;6.888;2023-04-01T23:26:34;10.00;99.90
5246;DHT22;54412;51.206;6.888;2023-04-01T23:29:07;9.90;99.90
5246;DHT22;54412;51.206;6.888;2023-04-01T23:31:59;9.80;99.90
5246;DHT22;54412;51.206;6.888;2023-04-01T23:34:32;9.80;99.90
5246;DHT22;54412;51.206;6.888;2023-04-01T23:37:13;9.70;99.90
5246;DHT22;54412;51.206;6.888;2023-04-01T23:39:45;9.80;99.90
5246;DHT22;54412;51.206;6.888;2023-04-01T23:42:32;9.70;99.90
5246;DHT22;54412;51.206;6.888;2023-04-01T23:45:13;9.80;99.90
5246;DHT22;54412;51.206;6.888;2023-04-01T23:47:48;9.80;99.90
5246;DHT22;54412;51.206;6.888;2023-04-01T23:50:24;9.80;99.90
5246;DHT22;54412;51.206;6.888;2023-04-01T23:53:47;9.70;99.90
5246;DHT22;54412;51.206;6.888;2023-04-01T23:55:52;9.70;99.90
5246;DHT22;54412;51.206;6.888;2023-04-01T23:58:23;9.70;99.90
